Nearby METAR Reports

 

ENCN - Kristiansand/Kje, Norway
Distance from station: N 17km
Oppdatert: 06/02/2023 01:50
Overskyet
Overskyet
 Vind fra varies
Vind: varies 6 km/h
Temperatur: 0°C
Duggpunkt: -1°C
Fuktighet: 93%
Barometer: 1039 hPa
Clouds: Overskyet
Visibility: 10 km
Cloud details: Overskyet 3353 m
2023/02/06 00:50 ENCN 060050Z AUTO VRB03KT 9999 OVC110/// M00/M01 Q1039
EKSN - Sindal Airport, Denmark
Distance from station: ØSØ 145km
Oppdatert: 30/12/2021 14:50
NOT Current
Mist, Hovedsaklig skyet
Mist, Hovedsaklig skyet
 Vind fra SV
Vind: SV 26 km/h
Temperatur: 7°C
Wind Chill: 3°C
Duggpunkt: 7°C
Fuktighet: 100%
Barometer: 999 hPa
Oversikt: Mist
Clouds: Hovedsaklig skyet
Visibility: 5 km
Cloud details: Delvis skyet 183 m
Hovedsaklig skyet 244 m
2021/12/30 13:50 EKSN 301350Z 23014KT 4500 BR SCT006 BKN008 07/07 Q0999
 
EKYT - Alborg, Denmark
Distance from station: SØ 153km
Oppdatert: 06/02/2023 01:50
Underkjølt tåke, Klart
Underkjølt tåke, Klart
 Vind fra VSV
Vind: VSV 4 km/h
Temperatur: 0°C
Duggpunkt: -1°C
Fuktighet: 93%
Barometer: 1039 hPa
Oversikt: Underkjølt tåke
Clouds: Klart
Visibility: 3 km
2023/02/06 00:50 EKYT 060050Z AUTO 25002KT 3000 R08L/P1500N R26R/0900U FZFG NCD M00/M01 Q1039
ENSN - Skien/Geiterygge, Norway
Distance from station: NØ 153km
Oppdatert: 09/11/2015 09:50
NOT Current
Klart
Klart
 Vind fra SSV
Vind: SSV 19 km/h, Vindkast: 41 km/h
Temperatur: 7°C
Wind Chill: 4°C
Duggpunkt: 3°C
Fuktighet: 76%
Barometer: 1000 hPa
Oversikt: Klart
Visibility: greater than 10 km
2015/11/09 08:50 ENSN 090850Z 20010G22KT 150V240 CAVOK 07/03 Q1000
 
ENZV - Stavanger/Sola(A, Norway
Distance from station: NV 166km
Oppdatert: 06/02/2023 01:50
Hovedsaklig skyet
Hovedsaklig skyet
 Vind fra S
Vind: S 9 km/h
Temperatur: 5°C
Wind Chill: 3°C
Duggpunkt: 4°C
Fuktighet: 93%
Barometer: 1039 hPa
Clouds: Hovedsaklig skyet
Visibility: 8 km
Cloud details: Delvis skyet 244 m
Hovedsaklig skyet 366 m
Hovedsaklig skyet 3658 m
2023/02/06 00:50 ENZV 060050Z 18005KT 8000 SCT008 BKN012 BKN120 05/04 Q1039
ENNO - Notodden, Norway
Distance from station: NNØ 182km
Oppdatert: 05/02/2023 16:20
NOT Current
Klart
Klart
 Vind fra calm
Vind: Stille
Temperatur: -3°C
Duggpunkt: -4°C
Fuktighet: 93%
Barometer: 1036 hPa
Oversikt: Klart
Visibility: greater than 10 km
2023/02/05 15:20 ENNO 051520Z 00000KT CAVOK M03/M04 Q1036
 
ENTO - Torp (civ/Nor-Af, Norway
Distance from station: NØ 183km
Oppdatert: 06/02/2023 01:50
Overskyet
Overskyet
 Vind fra SSV
Vind: SSV 7 km/h
Temperatur: -1°C
Wind Chill: -4°C
Duggpunkt: -1°C
Fuktighet: 100%
Barometer: 1037 hPa
Clouds: Overskyet
Visibility: 10 km
Cloud details: Overskyet 4267 m
2023/02/06 00:50 ENTO 060050Z AUTO 20004KT 9999 OVC140/// M01/M01 Q1037
EKKA - Karup (dan-Afb), Denmark
Distance from station: SSØ 209km
Oppdatert: 06/02/2023 01:50
Hovedsaklig skyet
Hovedsaklig skyet
 Vind fra VSV
Vind: VSV 7 km/h
Temperatur: 0°C
Wind Chill: -3°C
Duggpunkt: -1°C
Fuktighet: 93%
Barometer: 1040 hPa
Clouds: Hovedsaklig skyet
Visibility: 8 km
Cloud details: Few Clouds 3962 m
Hovedsaklig skyet 5182 m
2023/02/06 00:50 EKKA 060050Z AUTO 25004KT 8000 R09R/P2000N R27L/1900U FEW130/// BKN170/// M00/M01 Q1040
 
ENHD - Haugesund/Karmoy, Norway
Distance from station: NV 216km
Oppdatert: 06/02/2023 01:50
Hovedsaklig skyet
Hovedsaklig skyet
 Vind fra SØ
Vind: SØ 19 km/h
Temperatur: 5°C
Wind Chill: 1°C
Duggpunkt: 4°C
Fuktighet: 93%
Barometer: 1038 hPa
Clouds: Hovedsaklig skyet
Visibility: 8 km
Cloud details: Few Clouds 91 m
Delvis skyet 152 m
Hovedsaklig skyet 274 m
2023/02/06 00:50 ENHD 060050Z AUTO 13010KT 8000 FEW003/// SCT005/// BKN009/// 05/04 Q1038
ENRY - Rygge (nor-Afb), Norway
Distance from station: NØ 216km
Oppdatert: 06/02/2023 01:50
Mist, Overskyet
Mist, Overskyet
 Vind fra ØSØ
Vind: ØSØ 6 km/h
Temperatur: -4°C
Duggpunkt: -4°C
Fuktighet: 100%
Barometer: 1038 hPa
Oversikt: Mist
Clouds: Overskyet
Visibility: 1 km
Cloud details: Overskyet 0 m
2023/02/06 00:50 ENRY 060050Z AUTO 12003KT 1200NDV R12/P2000N R30/P2000N BR VV000 M04/M04 Q1038
 
ESGP - Goteborg/Save (a, Sweden
Distance from station: Ø 230km
Oppdatert: 06/02/2023 01:50
Underkjølt tåke, Overskyet
Underkjølt tåke, Overskyet
 Vind fra Ø
Vind: Ø 6 km/h
Temperatur: -1°C
Duggpunkt: -2°C
Fuktighet: 93%
Barometer: 1039 hPa
Oversikt: Underkjølt tåke
Clouds: Overskyet
Visibility: 0 km
Cloud details: Overskyet 30 m
2023/02/06 00:50 ESGP 060050Z AUTO 09003KT 0200 R01/0700N R19/0800N FZFG OVC001/// M01/M02 Q1039
EKVJ - Stauning Airport, Denmark
Distance from station: S 233km
Oppdatert: 03/02/2023 13:50
NOT Current
Hovedsaklig skyet
Hovedsaklig skyet
 Vind fra VNV
Vind: VNV 33 km/h
Temperatur: 7°C
Wind Chill: 3°C
Duggpunkt: 5°C
Fuktighet: 87%
Barometer: 1010 hPa
Clouds: Hovedsaklig skyet
Visibility: 7 km
Cloud details: Delvis skyet 610 m
Hovedsaklig skyet 914 m
2023/02/03 12:50 EKVJ 031250Z 29018KT 7000 SCT020 BKN030 07/05 Q1010
 
ENSO - Stord/Soerstokke, Norway
Distance from station: NV 246km
Oppdatert: 05/02/2023 19:50
NOT Current
Hovedsaklig skyet
Hovedsaklig skyet
 Vind fra SV
Vind: SV 11 km/h
Temperatur: 6°C
Wind Chill: 4°C
Duggpunkt: 6°C
Fuktighet: 100%
Barometer: 1039 hPa
Clouds: Hovedsaklig skyet
Visibility: 10 km
Cloud details: Few Clouds 366 m
Delvis skyet 549 m
Hovedsaklig skyet 2134 m
2023/02/05 18:50 ENSO 051850Z 23006KT 9999 FEW012 SCT018 BKN070 06/06 Q1039
EKAH - Tirstrup (civ/Mi, Denmark
Distance from station: SØ 252km
Oppdatert: 06/02/2023 01:50
Klart
Klart
 Vind fra V
Vind: V 7 km/h
Temperatur: -1°C
Wind Chill: -4°C
Duggpunkt: -2°C
Fuktighet: 93%
Barometer: 1039 hPa
Clouds: Klart
Visibility: 10 km
2023/02/06 00:50 EKAH 060050Z AUTO 27004KT 9999 NCD M01/M02 Q1039
 
ESGT - Trollhattan (pvt, Sweden
Distance from station: Ø 255km
Oppdatert: 06/02/2023 01:50
Underkjølt tåke, Overskyet
Underkjølt tåke, Overskyet
 Vind fra SSØ
Vind: SSØ 6 km/h
Temperatur: -3°C
Duggpunkt: -4°C
Fuktighet: 93%
Barometer: 1039 hPa
Oversikt: Underkjølt tåke
Clouds: Overskyet
Visibility: 0 km
Cloud details: Overskyet 61 m
2023/02/06 00:50 ESGT 060050Z AUTO 16003KT 0100 R15///// R33///// FZFG VV002 M03/M04 Q1039
ESGG - Goteborg/Landvet, Sweden
Distance from station: Ø 257km
Oppdatert: 06/02/2023 01:50
Underkjølt tåke, Overskyet
Underkjølt tåke, Overskyet
 Vind fra N
Vind: N 6 km/h
Temperatur: -3°C
Duggpunkt: -3°C
Fuktighet: 100%
Barometer: 1038 hPa
Oversikt: Underkjølt tåke
Clouds: Overskyet
Visibility: 0 km
Cloud details: Overskyet 30 m
2023/02/06 00:50 ESGG 060050Z 01003KT 0100 R03/0650N R21/0400N FZFG VV001 M03/M03 Q1038
 
EKBI - Billund Airport, Denmark
Distance from station: SSØ 269km
Oppdatert: 06/02/2023 01:50
Overskyet
Overskyet
 Vind fra V
Vind: V 2 km/h
Temperatur: -2°C
Duggpunkt: -2°C
Fuktighet: 100%
Barometer: 1040 hPa
Clouds: Overskyet
Visibility: 10 km
Cloud details: Overskyet 244 m
2023/02/06 00:50 EKBI 060050Z AUTO 27001KT 9999 OVC008/// M02/M02 Q1040
EKHN - Horns Rev B Heli, Denmark
Distance from station: S 274km
Oppdatert: 09/08/2016 14:20
NOT Current
Few Clouds
Few Clouds
 Vind fra VNV
Vind: VNV 50 km/h, Vindkast: 72 km/h
Temperatur: 14°C
Duggpunkt: 10°C
Fuktighet: 77%
Barometer: 1018 hPa
Clouds: Few Clouds
Visibility: 10 km
Cloud details: Few Clouds 1158 m
Few Clouds 2438 m
2016/08/09 12:20 EKHN 091220Z AUTO 29027G39KT 270V340 9999NDV FEW038/// FEW080/// 14/10 Q1018
 
ESIB - Satenas (swe-Afb, Sweden
Distance from station: Ø 277km
Oppdatert: 06/02/2023 01:50
Underkjølt tåke, Overskyet
Underkjølt tåke, Overskyet
 Vind fra S
Vind: S 6 km/h
Temperatur: -5°C
Duggpunkt: -5°C
Fuktighet: 100%
Barometer: 1038 hPa
Oversikt: Underkjølt tåke
Clouds: Overskyet
Visibility: 0 km
Cloud details: Overskyet 91 m
2023/02/06 00:50 ESIB 060050Z AUTO 18003KT 0100 R01/0600N R19/0500N FZFG VV003 M05/M05 Q1038
EKHR - Horns Rev B Heli, Denmark
Distance from station: S 282km
Oppdatert: 04/10/2016 06:20
NOT Current
Klart
Klart
 Vind fra Ø
Vind: Ø 4 km/h
Temperatur: 11°C
Duggpunkt: -49°C
Fuktighet: 0%
Barometer: 1038 hPa
Clouds: Klart
Visibility: 10 km
2016/10/04 04:20 EKHR 040420Z AUTO 08002KT 9999NDV NCD 11/M49 Q1038